createdAt,value
2023-04-12T00:00:05.130Z,999
2023-04-12T00:03:05.683Z,999
2023-04-12T00:06:05.135Z,999
2023-04-12T00:09:05.125Z,999
2023-04-12T00:12:05.166Z,999
2023-04-12T00:15:06.715Z,999
2023-04-12T00:18:05.453Z,999
2023-04-12T00:21:05.095Z,999
2023-04-12T00:24:05.112Z,999
2023-04-12T00:27:05.148Z,999
2023-04-12T00:30:05.112Z,999
2023-04-12T00:33:05.477Z,999
2023-04-12T00:36:05.234Z,999
2023-04-12T00:39:05.227Z,999
2023-04-12T00:42:05.193Z,999
2023-04-12T00:45:05.151Z,999
2023-04-12T00:48:05.375Z,999
2023-04-12T00:51:05.126Z,999
2023-04-12T00:54:05.137Z,999
2023-04-12T00:57:05.155Z,999
2023-04-12T01:00:05.182Z,999
2023-04-12T01:03:05.639Z,999
2023-04-12T01:06:05.102Z,999
2023-04-12T01:09:05.061Z,998
2023-04-12T01:12:05.199Z,998
2023-04-12T01:15:05.116Z,998
2023-04-12T01:18:05.432Z,998
2023-04-12T01:21:05.151Z,998
2023-04-12T01:24:05.093Z,998
2023-04-12T01:27:05.192Z,998
2023-04-12T01:30:05.111Z,998
2023-04-12T01:33:05.423Z,998
2023-04-12T01:36:07.852Z,998
2023-04-12T01:39:05.156Z,998
2023-04-12T01:42:05.111Z,998
2023-04-12T01:45:05.083Z,998
2023-04-12T01:48:05.402Z,998
2023-04-12T01:51:05.078Z,998
2023-04-12T01:54:05.277Z,998
2023-04-12T01:57:05.170Z,998
2023-04-12T02:00:05.227Z,998
2023-04-12T02:03:05.836Z,998
2023-04-12T02:06:05.156Z,998
2023-04-12T02:09:05.103Z,998
2023-04-12T02:12:05.262Z,998
2023-04-12T02:15:05.441Z,998
2023-04-12T02:18:05.297Z,998
2023-04-12T02:21:05.302Z,998
2023-04-12T02:24:05.176Z,998
2023-04-12T02:27:05.101Z,998
2023-04-12T02:30:05.213Z,998
2023-04-12T02:33:05.228Z,998
2023-04-12T02:36:05.226Z,998
2023-04-12T02:39:05.096Z,998
2023-04-12T02:42:05.156Z,998
2023-04-12T02:45:05.132Z,998
2023-04-12T02:48:05.477Z,998
2023-04-12T02:51:05.347Z,998
2023-04-12T02:54:05.126Z,996
2023-04-12T02:57:05.097Z,996
2023-04-12T03:00:05.127Z,996
2023-04-12T03:03:05.733Z,996
2023-04-12T03:06:05.128Z,996
2023-04-12T03:09:05.172Z,996
2023-04-12T03:12:05.079Z,996
2023-04-12T03:15:05.282Z,996
2023-04-12T03:18:05.292Z,996
2023-04-12T03:21:05.114Z,996
2023-04-12T03:24:05.095Z,996
2023-04-12T03:27:05.118Z,996
2023-04-12T03:30:05.257Z,996
2023-04-12T03:33:05.470Z,996
2023-04-12T03:36:05.281Z,996
2023-04-12T03:39:05.095Z,996
2023-04-12T03:42:05.173Z,996
2023-04-12T03:45:05.157Z,995
2023-04-12T03:48:05.273Z,995
2023-04-12T03:51:05.107Z,995
2023-04-12T03:54:05.122Z,995
2023-04-12T03:57:05.118Z,995
2023-04-12T04:00:05.442Z,995
2023-04-12T04:03:05.751Z,995
2023-04-12T04:06:05.118Z,994
2023-04-12T04:09:05.103Z,994
2023-04-12T04:12:05.110Z,994
2023-04-12T04:15:05.091Z,994
2023-04-12T04:18:05.391Z,994
2023-04-12T04:21:05.136Z,994
2023-04-12T04:24:05.096Z,994
2023-04-12T04:27:05.080Z,994
2023-04-12T04:30:05.210Z,994
2023-04-12T04:33:05.364Z,994
2023-04-12T04:36:05.353Z,994
2023-04-12T04:39:05.172Z,994
2023-04-12T04:42:05.133Z,994
2023-04-12T04:45:05.415Z,994
2023-04-12T04:48:05.362Z,994
2023-04-12T04:51:05.140Z,994
2023-04-12T04:54:05.205Z,994
2023-04-12T04:57:05.153Z,994
2023-04-12T05:00:05.263Z,994
2023-04-12T05:03:05.729Z,994
2023-04-12T05:06:05.198Z,994
2023-04-12T05:09:05.068Z,994
2023-04-12T05:12:05.193Z,994
2023-04-12T05:15:16.724Z,994
2023-04-12T05:18:05.370Z,994
2023-04-12T05:21:05.268Z,994
2023-04-12T05:24:05.240Z,994
2023-04-12T05:27:05.174Z,994
2023-04-12T05:30:05.408Z,994
2023-04-12T05:33:05.361Z,994
2023-04-12T05:36:05.443Z,994
2023-04-12T05:39:05.125Z,994
2023-04-12T05:42:05.168Z,994
2023-04-12T05:45:05.236Z,994
2023-04-12T05:48:05.357Z,994
2023-04-12T05:51:05.125Z,994
2023-04-12T05:54:05.155Z,994
2023-04-12T05:57:05.220Z,994
2023-04-12T06:00:05.205Z,994
2023-04-12T06:03:05.763Z,994
2023-04-12T06:06:05.188Z,994
2023-04-12T06:09:05.347Z,993
2023-04-12T06:12:05.171Z,993
2023-04-12T06:15:05.166Z,993
2023-04-12T06:18:05.621Z,993
2023-04-12T06:21:05.135Z,993
2023-04-12T06:24:05.206Z,993
2023-04-12T06:27:05.181Z,993
2023-04-12T06:30:05.211Z,993
2023-04-12T06:33:05.355Z,993
2023-04-12T06:36:05.449Z,993
2023-04-12T06:39:05.169Z,993
2023-04-12T06:42:05.100Z,993
2023-04-12T06:45:05.292Z,993
2023-04-12T06:48:05.379Z,993
2023-04-12T06:51:05.172Z,993
2023-04-12T06:54:05.220Z,993
2023-04-12T06:57:05.139Z,993
2023-04-12T07:00:05.429Z,993
2023-04-12T07:03:05.516Z,993
2023-04-12T07:06:27.914Z,993
2023-04-12T07:09:05.140Z,993
2023-04-12T07:12:05.436Z,992
2023-04-12T07:15:05.181Z,992
2023-04-12T07:18:05.337Z,992
2023-04-12T07:21:05.181Z,992
2023-04-12T07:24:05.145Z,992
2023-04-12T07:27:05.102Z,992
2023-04-12T07:30:05.237Z,992
2023-04-12T07:33:24.060Z,991
2023-04-12T07:36:05.373Z,991
2023-04-12T07:39:05.375Z,991
2023-04-12T07:42:05.171Z,991
2023-04-12T07:45:05.200Z,991
2023-04-12T07:48:05.531Z,991
2023-04-12T07:51:05.211Z,991
2023-04-12T07:54:05.196Z,991
2023-04-12T07:57:05.222Z,991
2023-04-12T08:00:05.178Z,991
2023-04-12T08:03:05.926Z,991
2023-04-12T08:06:05.305Z,991
2023-04-12T08:09:05.182Z,991
2023-04-12T08:12:05.134Z,991
2023-04-12T08:15:05.194Z,991
2023-04-12T08:18:05.411Z,991
2023-04-12T08:21:05.262Z,991
2023-04-12T08:24:05.149Z,990
2023-04-12T08:27:05.148Z,990
2023-04-12T08:30:05.260Z,990
2023-04-12T08:33:05.239Z,990
2023-04-12T08:36:05.438Z,990
2023-04-12T08:39:05.189Z,990
2023-04-12T08:42:05.153Z,990
2023-04-12T08:48:05.807Z,990
2023-04-12T08:51:05.491Z,990
2023-04-12T08:54:05.573Z,990
2023-04-12T08:57:05.741Z,990
2023-04-12T09:00:06.556Z,990
2023-04-12T09:03:06.914Z,990
2023-04-12T09:06:06.632Z,990
2023-04-12T09:09:08.296Z,990
2023-04-12T09:12:06.037Z,990
2023-04-12T09:15:05.969Z,990
2023-04-12T09:18:06.019Z,990
2023-04-12T09:21:05.906Z,990
2023-04-12T09:30:05.677Z,990
2023-04-12T09:33:05.684Z,990
2023-04-12T09:36:05.857Z,990
2023-04-12T09:39:05.856Z,990
2023-04-12T09:42:05.624Z,990
2023-04-12T09:45:05.469Z,990
2023-04-12T09:48:05.801Z,990
2023-04-12T09:51:05.556Z,990
2023-04-12T09:54:05.786Z,990
2023-04-12T09:57:05.432Z,990
2023-04-12T10:00:05.589Z,990
2023-04-12T10:03:06.402Z,990
2023-04-12T10:06:05.513Z,990
2023-04-12T10:09:05.604Z,990
2023-04-12T10:12:05.403Z,990
2023-04-12T10:15:05.535Z,990
2023-04-12T10:18:05.690Z,990
2023-04-12T10:21:05.498Z,990
2023-04-12T10:24:05.452Z,990
2023-04-12T10:27:07.757Z,990
2023-04-12T10:30:05.572Z,990
2023-04-12T10:33:06.043Z,990
2023-04-12T10:36:06.365Z,988
2023-04-12T10:39:05.518Z,988
2023-04-12T10:42:05.532Z,988
2023-04-12T10:45:06.096Z,988
2023-04-12T10:48:05.929Z,988
2023-04-12T10:51:05.855Z,988
2023-04-12T10:54:06.336Z,988
2023-04-12T10:57:05.872Z,988
2023-04-12T11:00:05.890Z,988
2023-04-12T11:03:06.596Z,988
2023-04-12T11:06:30.884Z,988
2023-04-12T11:09:05.706Z,988
2023-04-12T11:12:06.569Z,988
2023-04-12T11:15:05.794Z,988
2023-04-12T11:18:06.252Z,988
2023-04-12T11:21:05.794Z,988
2023-04-12T11:24:05.992Z,988
2023-04-12T11:27:05.628Z,988
2023-04-12T11:30:05.971Z,988
2023-04-12T11:33:05.824Z,988
2023-04-12T11:36:05.791Z,988
2023-04-12T11:39:06.146Z,988
2023-04-12T11:42:05.924Z,988
2023-04-12T11:45:20.874Z,988
2023-04-12T11:48:05.904Z,988
2023-04-12T11:51:16.156Z,988
2023-04-12T11:54:06.129Z,988
2023-04-12T11:57:10.236Z,988
2023-04-12T12:00:06.066Z,988
2023-04-12T12:03:13.734Z,988
2023-04-12T12:06:07.593Z,988
2023-04-12T12:09:06.465Z,988
2023-04-12T12:12:06.133Z,988
2023-04-12T12:15:05.726Z,988
2023-04-12T12:18:05.916Z,988
2023-04-12T12:21:06.018Z,988
2023-04-12T12:24:06.296Z,988
2023-04-12T12:27:06.605Z,988
2023-04-12T12:30:05.614Z,988
2023-04-12T12:33:06.145Z,988
2023-04-12T12:36:06.002Z,987
2023-04-12T12:39:05.845Z,987
2023-04-12T12:42:05.697Z,987
2023-04-12T12:45:06.215Z,987
2023-04-12T12:48:05.926Z,987
2023-04-12T12:51:05.671Z,987
2023-04-12T12:54:05.648Z,987
2023-04-12T12:57:07.406Z,987
2023-04-12T13:00:06.237Z,987
2023-04-12T13:03:07.563Z,987
2023-04-12T13:06:05.727Z,987
2023-04-12T13:09:06.467Z,987
2023-04-12T13:12:05.660Z,987
2023-04-12T13:15:28.255Z,987
2023-04-12T13:18:06.090Z,987
2023-04-12T13:21:06.357Z,987
2023-04-12T13:24:08.056Z,987
2023-04-12T13:27:06.323Z,987
2023-04-12T13:30:06.420Z,987
2023-04-12T13:33:05.845Z,987
2023-04-12T13:36:05.581Z,987
2023-04-12T13:39:05.738Z,987
2023-04-12T13:42:06.841Z,987
2023-04-12T13:45:05.461Z,987
2023-04-12T13:48:05.901Z,987
2023-04-12T13:51:05.835Z,987
2023-04-12T13:54:07.494Z,987
2023-04-12T13:57:05.769Z,986
2023-04-12T14:00:09.176Z,986
2023-04-12T14:03:07.895Z,986
2023-04-12T14:06:06.343Z,986
2023-04-12T14:09:05.958Z,986
2023-04-12T14:12:09.588Z,986
2023-04-12T14:15:06.574Z,986
2023-04-12T14:18:06.158Z,986
2023-04-12T14:21:06.138Z,986
2023-04-12T14:24:05.973Z,986
2023-04-12T14:27:05.935Z,986
2023-04-12T14:30:06.113Z,986
2023-04-12T14:33:06.499Z,986
2023-04-12T14:36:05.702Z,986
2023-04-12T14:39:09.508Z,986
2023-04-12T14:42:05.926Z,986
2023-04-12T14:45:06.273Z,986
2023-04-12T14:48:06.272Z,986
2023-04-12T14:51:08.174Z,986
2023-04-12T14:54:07.546Z,986
2023-04-12T14:57:05.864Z,986
2023-04-12T15:00:09.088Z,986
2023-04-12T15:03:08.447Z,986
2023-04-12T15:06:05.531Z,986
2023-04-12T15:09:08.458Z,986
2023-04-12T15:12:05.926Z,986
2023-04-12T15:15:08.616Z,986
2023-04-12T15:18:05.690Z,986
2023-04-12T15:21:08.591Z,986
2023-04-12T15:24:05.619Z,986
2023-04-12T15:27:08.028Z,986
2023-04-12T15:30:06.129Z,986
2023-04-12T15:33:05.737Z,986
2023-04-12T15:36:05.534Z,986
2023-04-12T15:39:06.041Z,986
2023-04-12T15:42:05.502Z,986
2023-04-12T15:45:05.695Z,986
2023-04-12T15:48:05.823Z,986
2023-04-12T15:51:05.628Z,986
2023-04-12T15:54:05.887Z,986
2023-04-12T15:57:05.946Z,986
2023-04-12T16:00:05.516Z,986
2023-04-12T16:03:06.414Z,986
2023-04-12T16:06:05.500Z,986
2023-04-12T16:09:06.474Z,986
2023-04-12T16:12:05.453Z,986
2023-04-12T16:15:05.752Z,986
2023-04-12T16:18:05.680Z,986
2023-04-12T16:21:05.601Z,986
2023-04-12T16:24:05.598Z,986
2023-04-12T16:27:05.452Z,986
2023-04-12T16:30:05.550Z,986
2023-04-12T16:33:05.788Z,986
2023-04-12T16:36:05.463Z,986
2023-04-12T16:39:05.576Z,986
2023-04-12T16:42:05.428Z,986
2023-04-12T16:45:06.487Z,986
2023-04-12T16:48:05.684Z,986
2023-04-12T16:51:05.587Z,986
2023-04-12T16:54:05.505Z,985
2023-04-12T16:57:05.788Z,985
2023-04-12T17:00:05.451Z,985
2023-04-12T17:03:06.065Z,985
2023-04-12T17:06:05.439Z,985
2023-04-12T17:09:05.660Z,985
2023-04-12T17:12:05.497Z,985
2023-04-12T17:15:05.573Z,985
2023-04-12T17:18:05.794Z,985
2023-04-12T17:21:05.775Z,985
2023-04-12T17:24:05.966Z,985
2023-04-12T17:27:05.478Z,985
2023-04-12T17:30:05.508Z,985
2023-04-12T17:33:06.407Z,985
2023-04-12T17:39:06.466Z,985
2023-04-12T17:42:05.605Z,985
2023-04-12T17:45:05.712Z,985
2023-04-12T17:48:05.649Z,985
2023-04-12T17:51:05.695Z,985
2023-04-12T17:54:05.690Z,985
2023-04-12T17:57:05.656Z,985
2023-04-12T18:00:05.551Z,985
2023-04-12T18:03:06.497Z,985
2023-04-12T18:06:05.398Z,985
2023-04-12T18:09:06.041Z,985
2023-04-12T18:12:05.412Z,985
2023-04-12T18:15:05.539Z,985
2023-04-12T18:18:05.566Z,985
2023-04-12T18:21:05.547Z,985
2023-04-12T18:24:05.447Z,985
2023-04-12T18:27:05.461Z,985
2023-04-12T18:30:05.497Z,985
2023-04-12T18:33:08.485Z,985
2023-04-12T18:36:05.451Z,985
2023-04-12T18:39:05.494Z,986
2023-04-12T18:42:05.413Z,986
2023-04-12T18:45:05.619Z,986
2023-04-12T18:48:05.608Z,986
2023-04-12T18:51:05.534Z,986
2023-04-12T18:54:06.067Z,986
2023-04-12T18:57:05.607Z,986
2023-04-12T19:00:05.659Z,986
2023-04-12T19:03:06.057Z,986
2023-04-12T19:06:05.353Z,986
2023-04-12T19:09:05.466Z,986
2023-04-12T19:12:05.355Z,986
2023-04-12T19:15:05.669Z,986
2023-04-12T19:18:06.166Z,986
2023-04-12T19:21:05.767Z,986
2023-04-12T19:24:05.710Z,986
2023-04-12T19:27:05.439Z,986
2023-04-12T19:30:05.509Z,986
2023-04-12T19:33:05.724Z,986
2023-04-12T19:36:05.389Z,986
2023-04-12T19:39:05.548Z,986
2023-04-12T19:42:05.580Z,986
2023-04-12T19:45:05.480Z,986
2023-04-12T19:48:05.729Z,986
2023-04-12T19:51:05.572Z,986
2023-04-12T19:54:05.497Z,986
2023-04-12T19:57:05.535Z,986
2023-04-12T20:00:05.477Z,986
2023-04-12T20:03:05.868Z,987
2023-04-12T20:06:05.415Z,987
2023-04-12T20:09:05.602Z,987
2023-04-12T20:12:05.354Z,987
2023-04-12T20:15:05.566Z,987
2023-04-12T20:18:05.467Z,987
2023-04-12T20:21:05.596Z,987
2023-04-12T20:24:05.380Z,987
2023-04-12T20:27:05.403Z,987
2023-04-12T20:30:05.515Z,987
2023-04-12T20:33:05.885Z,987
2023-04-12T20:36:05.432Z,987
2023-04-12T20:39:05.664Z,987
2023-04-12T20:42:05.519Z,987
2023-04-12T20:45:05.516Z,987
2023-04-12T20:48:05.643Z,987
2023-04-12T20:51:05.477Z,987
2023-04-12T20:54:05.417Z,987
2023-04-12T20:57:05.538Z,987
2023-04-12T21:00:05.721Z,987
2023-04-12T21:03:06.385Z,987
2023-04-12T21:06:05.482Z,987
2023-04-12T21:09:05.523Z,987
2023-04-12T21:12:05.374Z,987
2023-04-12T21:15:05.489Z,987
2023-04-12T21:18:05.612Z,987
2023-04-12T21:21:05.577Z,987
2023-04-12T21:24:05.373Z,987
2023-04-12T21:27:05.409Z,987
2023-04-12T21:30:05.496Z,987
2023-04-12T21:33:05.786Z,987
2023-04-12T21:36:05.422Z,987
2023-04-12T21:39:06.106Z,987
2023-04-12T21:42:05.424Z,987
2023-04-12T21:45:05.434Z,987
2023-04-12T21:48:05.525Z,987
2023-04-12T21:51:05.519Z,987
2023-04-12T21:54:05.377Z,987
2023-04-12T21:57:05.488Z,987
2023-04-12T22:00:06.442Z,987
2023-04-12T22:03:06.347Z,987
2023-04-12T22:06:09.842Z,987
2023-04-12T22:09:06.256Z,987
2023-04-12T22:12:05.456Z,987
2023-04-12T22:15:05.637Z,987
2023-04-12T22:18:05.576Z,987
2023-04-12T22:21:05.480Z,987
2023-04-12T22:24:05.987Z,987
2023-04-12T22:27:05.353Z,987
2023-04-12T22:30:05.463Z,987
2023-04-12T22:33:05.795Z,987
2023-04-12T22:36:05.379Z,987
2023-04-12T22:39:05.476Z,987
2023-04-12T22:42:05.377Z,987
2023-04-12T22:45:05.570Z,987
2023-04-12T22:48:05.537Z,987
2023-04-12T22:51:05.634Z,987
2023-04-12T22:54:05.370Z,987
2023-04-12T22:57:05.487Z,987
2023-04-12T23:00:05.396Z,987
2023-04-12T23:03:06.087Z,987
2023-04-12T23:06:05.354Z,987
2023-04-12T23:09:05.394Z,987
2023-04-12T23:12:05.418Z,987
2023-04-12T23:15:05.452Z,987
2023-04-12T23:18:05.611Z,987
2023-04-12T23:21:05.838Z,987
2023-04-12T23:24:05.442Z,987
2023-04-12T23:27:05.402Z,987
2023-04-12T23:30:05.517Z,987
2023-04-12T23:33:05.548Z,987
2023-04-12T23:36:05.381Z,987
2023-04-12T23:39:05.423Z,987
2023-04-12T23:42:05.418Z,987
2023-04-12T23:45:05.432Z,987
2023-04-12T23:48:05.631Z,987
2023-04-12T23:51:05.477Z,987
2023-04-12T23:54:05.602Z,987
2023-04-12T23:57:05.428Z,988
